Manson, WA (98831)

1:49 PM PDT on July 29, 2016 (GMT -0700)
APRSWXNET | | Change Station
Active Advisory: Fire Weather Watch

Elev 1282 ft 47.92 °N, 120.18 °W | Updated 19 minutes ago

Clear
Clear
94 °F
Feels Like 93 °F
N
3
Wind Variable Wind from SSW
Gusts 0.0 mph

Today
High -- | Low -- °F
--% Chance of Precip.
Yesterday
High -- | Low -- °F
Precip. -- in
Pressure 29.82 in
Visibility 10.0 miles
Clouds Clear
Heat Index 93 °F
Dew Point 59 °F
Humidity 31%
Rainfall in
Snow Depth Not available.
5:34 AM 8:39 PM
Waning Crescent, 19% visible
METAR KEAT 291955Z AUTO VRB03KT 10SM CLR 34/11 A2986 RMK AO2 SLP098 T03390106
Pressure 29.82 in
Visibility 10.0 miles
Clouds Clear
Heat Index 93 °F
Dew Point 59 °F
Humidity 31%
Rainfall in
Snow Depth Not available.
5:34 AM 8:39 PM
Waning Crescent, 19% visible
METAR KEAT 291955Z AUTO VRB03KT 10SM CLR 34/11 A2986 RMK AO2 SLP098 T03390106

10-Day Weather Forecast

Almanac

Astronomy

Jul. 29, 2016 Rise Set
Actual Time
Civil Twilight
Nautical Twilight
Astronomical Twilight
Moon
Length of Visible Light
Length of Day
Tomorrow will be .
, % of the Moon is Illuminated

Today's Extremes

State Highs State Lows

Community

WunderPhotos

Upload Photos

1,928,411 photos uploaded!

WunderBlog® & News

Nearby

Air Quality

  Air Quality AQ Index Pollutant
Not available.

Snow Depth

Station Depth Elevation

Earthquake Activity

City Distance Mag. Time & Date
Minimum magnitude displayed is 2.5.

Coastal Water Temperatures

Place Temperature

Stations

Nearby Weather Stations

Station Location Temp. Windchill Dew Point Humidity Wind Precip. Elev Updated Type
                   

Watches & Warnings

Fire Weather Watch
Issued: 6:01 AM PDT Jul. 29, 2016 – National Weather Service

... Fire Weather Watch remains in effect from Saturday afternoon
through Saturday evening for wind and low relative humidity for
northern Columbia Basin and south/central Cascade valleys...

* affected area: fire weather zone 673 East Washington northern
Columbia Basin (zone 673)... fire weather zone 676 East
Washington south central Cascade valleys (zone 676) and fire
weather zone 677 East Washington central Cascade valleys (zone
677).

* Winds: west 10 to 20 mph with gusts up to 30 mph.

* Relative humidities: 11 to 23 percent.

* Impacts: dry and breezy conditions will lead to the rapid
spread of any new fire starts.

* Communities: Wenatchee... Entiat... Vantage... George... Ephrata...
Moses Lake... Douglas... Waterville... Wilbur... Othello...
Ritzville... Coulee City... Ellensburg... Yakima.

Precautionary/preparedness actions...

A Fire Weather Watch means that critical fire weather conditions
are forecast to occur. Listen for later forecasts and possible
red flag warnings.